sensor_id;sensor_type;location;lat;lon;timestamp;P1;durP1;ratioP1;P2;durP2;ratioP2
84723;SDS011;74944;52.322;16.918;2024-01-10T00:01:41;189.70;;;74.03;;
84723;SDS011;74944;52.322;16.918;2024-01-10T00:04:06;190.65;;;69.68;;
84723;SDS011;74944;52.322;16.918;2024-01-10T00:06:32;164.65;;;59.55;;
84723;SDS011;74944;52.322;16.918;2024-01-10T00:08:59;148.98;;;52.05;;
84723;SDS011;74944;52.322;16.918;2024-01-10T00:11:25;125.40;;;42.72;;
84723;SDS011;74944;52.322;16.918;2024-01-10T00:13:50;159.05;;;58.20;;
84723;SDS011;74944;52.322;16.918;2024-01-10T00:16:16;182.80;;;65.88;;
84723;SDS011;74944;52.322;16.918;2024-01-10T00:18:42;211.57;;;72.20;;
84723;SDS011;74944;52.322;16.918;2024-01-10T00:21:08;213.60;;;76.15;;
84723;SDS011;74944;52.322;16.918;2024-01-10T00:23:33;188.23;;;65.50;;
84723;SDS011;74944;52.322;16.918;2024-01-10T00:25:59;149.95;;;51.92;;
84723;SDS011;74944;52.322;16.918;2024-01-10T00:28:25;128.90;;;46.30;;
84723;SDS011;74944;52.322;16.918;2024-01-10T00:30:51;128.90;;;46.92;;
84723;SDS011;74944;52.322;16.918;2024-01-10T00:33:17;134.15;;;44.90;;
84723;SDS011;74944;52.322;16.918;2024-01-10T00:35:43;129.25;;;42.95;;
84723;SDS011;74944;52.322;16.918;2024-01-10T00:38:09;121.53;;;41.33;;
84723;SDS011;74944;52.322;16.918;2024-01-10T00:40:35;124.97;;;44.03;;
84723;SDS011;74944;52.322;16.918;2024-01-10T00:43:01;110.72;;;40.00;;
84723;SDS011;74944;52.322;16.918;2024-01-10T00:45:27;122.78;;;41.97;;
84723;SDS011;74944;52.322;16.918;2024-01-10T00:47:53;127.68;;;47.47;;
84723;SDS011;74944;52.322;16.918;2024-01-10T00:50:18;124.70;;;44.90;;
84723;SDS011;74944;52.322;16.918;2024-01-10T00:52:44;115.15;;;42.05;;
84723;SDS011;74944;52.322;16.918;2024-01-10T00:55:10;122.28;;;45.50;;
84723;SDS011;74944;52.322;16.918;2024-01-10T00:57:36;131.80;;;46.42;;
84723;SDS011;74944;52.322;16.918;2024-01-10T01:00:07;118.45;;;44.28;;
84723;SDS011;74944;52.322;16.918;2024-01-10T01:02:34;140.82;;;45.55;;
84723;SDS011;74944;52.322;16.918;2024-01-10T01:05:00;134.48;;;49.78;;
84723;SDS011;74944;52.322;16.918;2024-01-10T01:07:27;152.52;;;51.88;;
84723;SDS011;74944;52.322;16.918;2024-01-10T01:09:53;147.90;;;49.50;;
84723;SDS011;74944;52.322;16.918;2024-01-10T01:12:18;161.15;;;57.90;;
84723;SDS011;74944;52.322;16.918;2024-01-10T01:14:44;168.57;;;54.80;;
84723;SDS011;74944;52.322;16.918;2024-01-10T01:17:10;175.50;;;58.33;;
84723;SDS011;74944;52.322;16.918;2024-01-10T01:19:37;156.95;;;58.72;;
84723;SDS011;74944;52.322;16.918;2024-01-10T01:22:03;386.65;;;103.10;;
84723;SDS011;74944;52.322;16.918;2024-01-10T01:24:28;560.15;;;152.40;;
84723;SDS011;74944;52.322;16.918;2024-01-10T01:26:54;470.38;;;130.10;;
84723;SDS011;74944;52.322;16.918;2024-01-10T01:29:20;397.00;;;111.72;;
84723;SDS011;74944;52.322;16.918;2024-01-10T01:31:45;342.42;;;96.75;;
84723;SDS011;74944;52.322;16.918;2024-01-10T01:34:13;288.25;;;88.85;;
84723;SDS011;74944;52.322;16.918;2024-01-10T01:36:39;315.88;;;89.10;;
84723;SDS011;74944;52.322;16.918;2024-01-10T01:41:31;284.80;;;78.40;;
84723;SDS011;74944;52.322;16.918;2024-01-10T01:43:56;226.88;;;71.00;;
84723;SDS011;74944;52.322;16.918;2024-01-10T01:46:23;262.17;;;75.43;;
84723;SDS011;74944;52.322;16.918;2024-01-10T01:48:49;225.40;;;72.65;;
84723;SDS011;74944;52.322;16.918;2024-01-10T01:51:15;232.02;;;73.47;;
84723;SDS011;74944;52.322;16.918;2024-01-10T01:53:46;222.50;;;70.78;;
84723;SDS011;74944;52.322;16.918;2024-01-10T01:56:13;183.40;;;63.20;;
84723;SDS011;74944;52.322;16.918;2024-01-10T01:58:40;187.38;;;64.63;;
84723;SDS011;74944;52.322;16.918;2024-01-10T02:01:05;188.88;;;58.80;;
84723;SDS011;74944;52.322;16.918;2024-01-10T02:03:32;163.25;;;58.13;;
84723;SDS011;74944;52.322;16.918;2024-01-10T02:05:58;158.95;;;52.72;;
84723;SDS011;74944;52.322;16.918;2024-01-10T02:08:24;159.32;;;50.58;;
84723;SDS011;74944;52.322;16.918;2024-01-10T02:10:50;146.70;;;51.17;;
84723;SDS011;74944;52.322;16.918;2024-01-10T02:13:18;151.20;;;52.38;;
84723;SDS011;74944;52.322;16.918;2024-01-10T02:15:43;185.70;;;59.03;;
84723;SDS011;74944;52.322;16.918;2024-01-10T02:18:09;195.02;;;60.80;;
84723;SDS011;74944;52.322;16.918;2024-01-10T02:24:20;161.38;;;54.25;;
84723;SDS011;74944;52.322;16.918;2024-01-10T02:26:46;183.13;;;60.17;;
84723;SDS011;74944;52.322;16.918;2024-01-10T02:29:12;184.82;;;57.22;;
84723;SDS011;74944;52.322;16.918;2024-01-10T02:34:04;155.57;;;48.88;;
84723;SDS011;74944;52.322;16.918;2024-01-10T02:36:31;156.18;;;53.70;;
84723;SDS011;74944;52.322;16.918;2024-01-10T02:38:57;149.43;;;53.85;;
84723;SDS011;74944;52.322;16.918;2024-01-10T02:41:23;156.32;;;55.17;;
84723;SDS011;74944;52.322;16.918;2024-01-10T02:43:48;189.35;;;62.28;;
84723;SDS011;74944;52.322;16.918;2024-01-10T02:46:14;178.52;;;61.15;;
84723;SDS011;74944;52.322;16.918;2024-01-10T02:48:40;196.85;;;64.00;;
84723;SDS011;74944;52.322;16.918;2024-01-10T02:51:06;193.88;;;62.25;;
84723;SDS011;74944;52.322;16.918;2024-01-10T02:53:32;192.63;;;64.03;;
84723;SDS011;74944;52.322;16.918;2024-01-10T02:55:58;177.07;;;64.45;;
84723;SDS011;74944;52.322;16.918;2024-01-10T02:58:23;175.05;;;59.40;;
84723;SDS011;74944;52.322;16.918;2024-01-10T03:00:50;167.55;;;62.45;;
84723;SDS011;74944;52.322;16.918;2024-01-10T03:03:16;172.93;;;58.40;;
84723;SDS011;74944;52.322;16.918;2024-01-10T03:05:42;166.48;;;57.45;;
84723;SDS011;74944;52.322;16.918;2024-01-10T03:08:08;163.07;;;58.08;;
84723;SDS011;74944;52.322;16.918;2024-01-10T03:10:33;181.45;;;61.70;;
84723;SDS011;74944;52.322;16.918;2024-01-10T03:12:59;161.60;;;55.30;;
84723;SDS011;74944;52.322;16.918;2024-01-10T03:15:25;157.75;;;52.50;;
84723;SDS011;74944;52.322;16.918;2024-01-10T03:17:50;141.07;;;50.28;;
84723;SDS011;74944;52.322;16.918;2024-01-10T03:20:16;142.98;;;48.92;;
84723;SDS011;74944;52.322;16.918;2024-01-10T03:22:42;128.05;;;47.58;;
84723;SDS011;74944;52.322;16.918;2024-01-10T03:25:08;133.93;;;47.65;;
84723;SDS011;74944;52.322;16.918;2024-01-10T03:27:33;150.43;;;50.28;;
84723;SDS011;74944;52.322;16.918;2024-01-10T03:29:59;133.27;;;48.88;;
84723;SDS011;74944;52.322;16.918;2024-01-10T03:32:25;136.40;;;48.85;;
84723;SDS011;74944;52.322;16.918;2024-01-10T03:34:50;134.55;;;47.13;;
84723;SDS011;74944;52.322;16.918;2024-01-10T03:37:17;151.68;;;48.70;;
84723;SDS011;74944;52.322;16.918;2024-01-10T03:39:44;132.65;;;48.22;;
84723;SDS011;74944;52.322;16.918;2024-01-10T03:42:10;151.27;;;50.17;;
84723;SDS011;74944;52.322;16.918;2024-01-10T03:44:36;136.10;;;48.35;;
84723;SDS011;74944;52.322;16.918;2024-01-10T03:47:01;148.32;;;48.63;;
84723;SDS011;74944;52.322;16.918;2024-01-10T03:51:53;128.48;;;45.28;;
84723;SDS011;74944;52.322;16.918;2024-01-10T03:54:19;124.40;;;45.60;;
84723;SDS011;74944;52.322;16.918;2024-01-10T03:56:44;133.38;;;48.08;;
84723;SDS011;74944;52.322;16.918;2024-01-10T03:59:10;130.93;;;48.08;;
84723;SDS011;74944;52.322;16.918;2024-01-10T04:01:36;128.95;;;47.22;;
84723;SDS011;74944;52.322;16.918;2024-01-10T04:04:04;138.68;;;47.10;;
84723;SDS011;74944;52.322;16.918;2024-01-10T04:06:30;140.88;;;51.38;;
84723;SDS011;74944;52.322;16.918;2024-01-10T04:08:56;141.02;;;49.30;;
84723;SDS011;74944;52.322;16.918;2024-01-10T04:11:22;144.95;;;47.10;;
84723;SDS011;74944;52.322;16.918;2024-01-10T04:13:48;123.90;;;45.50;;
84723;SDS011;74944;52.322;16.918;2024-01-10T04:16:13;131.90;;;47.58;;
84723;SDS011;74944;52.322;16.918;2024-01-10T04:18:39;128.52;;;45.38;;
84723;SDS011;74944;52.322;16.918;2024-01-10T04:21:05;126.90;;;47.28;;
84723;SDS011;74944;52.322;16.918;2024-01-10T04:23:32;130.25;;;45.30;;
84723;SDS011;74944;52.322;16.918;2024-01-10T04:26:01;141.13;;;48.10;;
84723;SDS011;74944;52.322;16.918;2024-01-10T04:28:28;138.15;;;46.70;;
84723;SDS011;74944;52.322;16.918;2024-01-10T04:30:53;136.45;;;47.60;;
84723;SDS011;74944;52.322;16.918;2024-01-10T04:33:19;142.23;;;51.03;;
84723;SDS011;74944;52.322;16.918;2024-01-10T04:35:45;128.85;;;45.03;;
84723;SDS011;74944;52.322;16.918;2024-01-10T04:38:11;134.52;;;46.40;;
84723;SDS011;74944;52.322;16.918;2024-01-10T04:40:36;144.77;;;48.92;;
84723;SDS011;74944;52.322;16.918;2024-01-10T04:43:02;136.50;;;45.60;;
84723;SDS011;74944;52.322;16.918;2024-01-10T04:45:28;120.47;;;49.85;;
84723;SDS011;74944;52.322;16.918;2024-01-10T04:47:54;141.70;;;51.05;;
84723;SDS011;74944;52.322;16.918;2024-01-10T04:50:19;144.43;;;51.42;;
84723;SDS011;74944;52.322;16.918;2024-01-10T04:52:45;161.25;;;55.03;;
84723;SDS011;74944;52.322;16.918;2024-01-10T04:55:10;179.02;;;58.28;;
84723;SDS011;74944;52.322;16.918;2024-01-10T04:57:36;197.27;;;65.72;;
84723;SDS011;74944;52.322;16.918;2024-01-10T05:00:02;200.73;;;63.30;;
84723;SDS011;74944;52.322;16.918;2024-01-10T05:02:30;205.77;;;68.68;;
84723;SDS011;74944;52.322;16.918;2024-01-10T05:04:55;211.60;;;71.38;;
84723;SDS011;74944;52.322;16.918;2024-01-10T05:07:21;210.20;;;69.35;;
84723;SDS011;74944;52.322;16.918;2024-01-10T05:09:46;193.95;;;68.03;;
84723;SDS011;74944;52.322;16.918;2024-01-10T05:12:12;168.85;;;55.70;;
84723;SDS011;74944;52.322;16.918;2024-01-10T05:14:38;145.00;;;51.85;;
84723;SDS011;74944;52.322;16.918;2024-01-10T05:17:04;126.30;;;51.05;;
84723;SDS011;74944;52.322;16.918;2024-01-10T05:19:30;154.95;;;50.85;;
84723;SDS011;74944;52.322;16.918;2024-01-10T05:21:55;163.07;;;54.30;;
84723;SDS011;74944;52.322;16.918;2024-01-10T05:24:22;151.93;;;53.63;;
84723;SDS011;74944;52.322;16.918;2024-01-10T05:26:48;146.45;;;53.90;;
84723;SDS011;74944;52.322;16.918;2024-01-10T05:29:16;142.25;;;51.47;;
84723;SDS011;74944;52.322;16.918;2024-01-10T05:31:44;162.05;;;53.45;;
84723;SDS011;74944;52.322;16.918;2024-01-10T05:34:10;150.02;;;51.88;;
84723;SDS011;74944;52.322;16.918;2024-01-10T05:36:36;137.13;;;50.15;;
84723;SDS011;74944;52.322;16.918;2024-01-10T05:39:01;140.25;;;49.67;;
84723;SDS011;74944;52.322;16.918;2024-01-10T05:41:28;135.27;;;50.70;;
84723;SDS011;74944;52.322;16.918;2024-01-10T05:43:55;135.50;;;51.35;;
84723;SDS011;74944;52.322;16.918;2024-01-10T05:46:20;137.90;;;49.47;;
84723;SDS011;74944;52.322;16.918;2024-01-10T05:48:46;127.63;;;46.45;;
84723;SDS011;74944;52.322;16.918;2024-01-10T05:51:13;141.85;;;51.53;;
84723;SDS011;74944;52.322;16.918;2024-01-10T05:53:39;123.68;;;49.33;;
84723;SDS011;74944;52.322;16.918;2024-01-10T05:56:05;118.75;;;42.72;;
84723;SDS011;74944;52.322;16.918;2024-01-10T05:58:32;120.80;;;43.72;;
84723;SDS011;74944;52.322;16.918;2024-01-10T06:00:58;107.40;;;38.83;;
84723;SDS011;74944;52.322;16.918;2024-01-10T06:03:23;105.60;;;39.38;;
84723;SDS011;74944;52.322;16.918;2024-01-10T06:08:15;106.68;;;42.17;;
84723;SDS011;74944;52.322;16.918;2024-01-10T06:10:41;108.18;;;40.35;;
84723;SDS011;74944;52.322;16.918;2024-01-10T06:13:07;111.15;;;40.92;;
84723;SDS011;74944;52.322;16.918;2024-01-10T06:15:33;113.57;;;43.85;;
84723;SDS011;74944;52.322;16.918;2024-01-10T06:17:59;117.30;;;41.65;;
84723;SDS011;74944;52.322;16.918;2024-01-10T06:20:25;111.75;;;40.83;;
84723;SDS011;74944;52.322;16.918;2024-01-10T06:22:52;107.35;;;40.63;;
84723;SDS011;74944;52.322;16.918;2024-01-10T06:25:20;121.90;;;43.83;;
84723;SDS011;74944;52.322;16.918;2024-01-10T06:27:46;127.80;;;45.28;;
84723;SDS011;74944;52.322;16.918;2024-01-10T06:30:12;116.50;;;42.88;;
84723;SDS011;74944;52.322;16.918;2024-01-10T06:32:38;130.45;;;45.53;;
84723;SDS011;74944;52.322;16.918;2024-01-10T06:35:05;131.35;;;43.75;;
84723;SDS011;74944;52.322;16.918;2024-01-10T06:37:31;124.55;;;44.00;;
84723;SDS011;74944;52.322;16.918;2024-01-10T06:39:57;124.65;;;45.33;;
84723;SDS011;74944;52.322;16.918;2024-01-10T06:42:22;121.60;;;44.42;;
84723;SDS011;74944;52.322;16.918;2024-01-10T06:44:48;127.80;;;46.03;;
84723;SDS011;74944;52.322;16.918;2024-01-10T06:47:14;134.80;;;49.20;;
84723;SDS011;74944;52.322;16.918;2024-01-10T06:49:40;154.85;;;50.10;;
84723;SDS011;74944;52.322;16.918;2024-01-10T06:52:05;182.85;;;61.05;;
84723;SDS011;74944;52.322;16.918;2024-01-10T06:54:33;188.20;;;57.58;;
84723;SDS011;74944;52.322;16.918;2024-01-10T06:57:00;176.90;;;61.50;;
84723;SDS011;74944;52.322;16.918;2024-01-10T06:59:27;155.85;;;52.42;;
84723;SDS011;74944;52.322;16.918;2024-01-10T07:01:54;129.30;;;44.42;;
84723;SDS011;74944;52.322;16.918;2024-01-10T07:04:23;131.43;;;43.10;;
84723;SDS011;74944;52.322;16.918;2024-01-10T07:06:49;123.03;;;42.55;;
84723;SDS011;74944;52.322;16.918;2024-01-10T07:09:16;129.68;;;44.42;;
84723;SDS011;74944;52.322;16.918;2024-01-10T07:11:47;116.25;;;42.38;;
84723;SDS011;74944;52.322;16.918;2024-01-10T07:14:14;117.50;;;40.72;;
84723;SDS011;74944;52.322;16.918;2024-01-10T07:16:40;121.28;;;44.53;;
84723;SDS011;74944;52.322;16.918;2024-01-10T07:19:11;130.90;;;42.70;;
84723;SDS011;74944;52.322;16.918;2024-01-10T07:24:07;108.72;;;41.33;;
84723;SDS011;74944;52.322;16.918;2024-01-10T07:26:37;121.72;;;43.15;;
84723;SDS011;74944;52.322;16.918;2024-01-10T07:29:04;126.35;;;43.75;;
84723;SDS011;74944;52.322;16.918;2024-01-10T07:31:34;133.73;;;45.70;;
84723;SDS011;74944;52.322;16.918;2024-01-10T07:34:00;123.80;;;43.47;;
84723;SDS011;74944;52.322;16.918;2024-01-10T07:36:25;144.75;;;51.08;;
84723;SDS011;74944;52.322;16.918;2024-01-10T07:38:52;139.98;;;50.70;;
84723;SDS011;74944;52.322;16.918;2024-01-10T07:41:18;126.18;;;45.28;;
84723;SDS011;74944;52.322;16.918;2024-01-10T07:43:44;128.98;;;48.92;;
84723;SDS011;74944;52.322;16.918;2024-01-10T07:46:10;143.07;;;50.58;;
84723;SDS011;74944;52.322;16.918;2024-01-10T07:48:36;134.80;;;50.30;;
84723;SDS011;74944;52.322;16.918;2024-01-10T07:51:03;133.38;;;51.38;;
84723;SDS011;74944;52.322;16.918;2024-01-10T07:53:30;129.20;;;47.00;;
84723;SDS011;74944;52.322;16.918;2024-01-10T07:55:55;134.85;;;48.92;;
84723;SDS011;74944;52.322;16.918;2024-01-10T07:58:22;132.95;;;50.72;;
84723;SDS011;74944;52.322;16.918;2024-01-10T08:00:47;145.05;;;53.95;;
84723;SDS011;74944;52.322;16.918;2024-01-10T08:03:13;169.48;;;63.58;;
84723;SDS011;74944;52.322;16.918;2024-01-10T08:05:39;191.80;;;66.18;;
84723;SDS011;74944;52.322;16.918;2024-01-10T08:08:05;191.50;;;67.38;;
84723;SDS011;74944;52.322;16.918;2024-01-10T08:10:31;162.65;;;64.70;;
84723;SDS011;74944;52.322;16.918;2024-01-10T08:12:58;183.25;;;64.40;;
84723;SDS011;74944;52.322;16.918;2024-01-10T08:15:23;170.68;;;61.65;;
84723;SDS011;74944;52.322;16.918;2024-01-10T08:17:49;172.23;;;61.35;;
84723;SDS011;74944;52.322;16.918;2024-01-10T08:20:15;174.15;;;61.15;;
84723;SDS011;74944;52.322;16.918;2024-01-10T08:22:45;165.02;;;58.60;;
84723;SDS011;74944;52.322;16.918;2024-01-10T08:25:10;167.85;;;60.38;;
84723;SDS011;74944;52.322;16.918;2024-01-10T08:27:36;143.63;;;53.92;;
84723;SDS011;74944;52.322;16.918;2024-01-10T08:30:02;143.60;;;56.00;;
84723;SDS011;74944;52.322;16.918;2024-01-10T08:32:31;154.40;;;59.10;;
84723;SDS011;74944;52.322;16.918;2024-01-10T08:34:56;159.27;;;54.85;;
84723;SDS011;74944;52.322;16.918;2024-01-10T08:37:22;138.95;;;52.25;;
84723;SDS011;74944;52.322;16.918;2024-01-10T08:39:48;148.23;;;57.05;;
84723;SDS011;74944;52.322;16.918;2024-01-10T08:42:15;136.73;;;52.60;;
84723;SDS011;74944;52.322;16.918;2024-01-10T08:44:41;145.52;;;53.92;;
84723;SDS011;74944;52.322;16.918;2024-01-10T08:47:07;141.00;;;51.97;;
84723;SDS011;74944;52.322;16.918;2024-01-10T08:49:33;144.88;;;53.40;;
84723;SDS011;74944;52.322;16.918;2024-01-10T08:52:00;141.75;;;53.65;;
84723;SDS011;74944;52.322;16.918;2024-01-10T08:54:27;148.32;;;54.60;;
84723;SDS011;74944;52.322;16.918;2024-01-10T08:56:53;145.15;;;55.75;;
84723;SDS011;74944;52.322;16.918;2024-01-10T08:59:18;146.52;;;56.28;;
84723;SDS011;74944;52.322;16.918;2024-01-10T09:01:44;147.55;;;58.78;;
84723;SDS011;74944;52.322;16.918;2024-01-10T09:04:10;140.50;;;56.20;;
84723;SDS011;74944;52.322;16.918;2024-01-10T09:06:35;148.50;;;54.10;;
84723;SDS011;74944;52.322;16.918;2024-01-10T09:09:01;135.32;;;56.17;;
84723;SDS011;74944;52.322;16.918;2024-01-10T09:11:28;145.48;;;54.83;;
84723;SDS011;74944;52.322;16.918;2024-01-10T09:13:54;148.40;;;57.65;;
84723;SDS011;74944;52.322;16.918;2024-01-10T09:16:20;146.70;;;57.70;;
84723;SDS011;74944;52.322;16.918;2024-01-10T09:18:45;154.25;;;61.30;;
84723;SDS011;74944;52.322;16.918;2024-01-10T09:21:11;179.73;;;69.10;;
84723;SDS011;74944;52.322;16.918;2024-01-10T09:23:37;180.75;;;68.88;;
84723;SDS011;74944;52.322;16.918;2024-01-10T09:26:03;168.07;;;66.47;;
84723;SDS011;74944;52.322;16.918;2024-01-10T09:28:30;183.77;;;71.63;;
84723;SDS011;74944;52.322;16.918;2024-01-10T09:30:56;205.25;;;78.03;;
84723;SDS011;74944;52.322;16.918;2024-01-10T09:33:22;194.45;;;75.60;;
84723;SDS011;74944;52.322;16.918;2024-01-10T09:35:48;204.98;;;77.93;;
84723;SDS011;74944;52.322;16.918;2024-01-10T09:38:14;201.70;;;73.25;;
84723;SDS011;74944;52.322;16.918;2024-01-10T09:40:40;211.50;;;77.18;;
84723;SDS011;74944;52.322;16.918;2024-01-10T09:43:05;215.07;;;79.75;;
84723;SDS011;74944;52.322;16.918;2024-01-10T09:45:36;215.77;;;78.90;;
84723;SDS011;74944;52.322;16.918;2024-01-10T09:48:07;203.32;;;77.75;;
84723;SDS011;74944;52.322;16.918;2024-01-10T09:50:33;199.45;;;76.13;;
84723;SDS011;74944;52.322;16.918;2024-01-10T09:53:05;175.23;;;68.47;;
84723;SDS011;74944;52.322;16.918;2024-01-10T09:55:35;183.27;;;69.63;;
84723;SDS011;74944;52.322;16.918;2024-01-10T09:58:05;189.60;;;73.72;;
84723;SDS011;74944;52.322;16.918;2024-01-10T10:00:33;151.48;;;60.47;;
84723;SDS011;74944;52.322;16.918;2024-01-10T10:03:00;141.57;;;57.38;;
84723;SDS011;74944;52.322;16.918;2024-01-10T10:05:27;138.13;;;56.78;;
84723;SDS011;74944;52.322;16.918;2024-01-10T10:07:53;153.55;;;59.33;;
84723;SDS011;74944;52.322;16.918;2024-01-10T10:10:20;145.00;;;56.40;;
84723;SDS011;74944;52.322;16.918;2024-01-10T10:12:46;123.38;;;52.88;;
84723;SDS011;74944;52.322;16.918;2024-01-10T10:15:14;130.90;;;49.03;;
84723;SDS011;74944;52.322;16.918;2024-01-10T10:17:41;103.32;;;44.78;;
84723;SDS011;74944;52.322;16.918;2024-01-10T10:20:13;113.35;;;43.88;;
84723;SDS011;74944;52.322;16.918;2024-01-10T10:22:57;115.03;;;44.55;;
84723;SDS011;74944;52.322;16.918;2024-01-10T10:25:31;97.30;;;40.00;;
84723;SDS011;74944;52.322;16.918;2024-01-10T10:28:01;97.45;;;40.88;;
84723;SDS011;74944;52.322;16.918;2024-01-10T10:30:28;101.55;;;41.17;;
84723;SDS011;74944;52.322;16.918;2024-01-10T10:32:57;113.45;;;43.97;;
84723;SDS011;74944;52.322;16.918;2024-01-10T10:35:23;108.80;;;40.28;;
84723;SDS011;74944;52.322;16.918;2024-01-10T10:37:49;87.78;;;36.35;;
84723;SDS011;74944;52.322;16.918;2024-01-10T10:40:17;82.57;;;34.90;;
84723;SDS011;74944;52.322;16.918;2024-01-10T10:42:44;87.50;;;34.10;;
84723;SDS011;74944;52.322;16.918;2024-01-10T10:45:18;82.25;;;33.92;;
84723;SDS011;74944;52.322;16.918;2024-01-10T10:47:47;76.47;;;32.35;;
84723;SDS011;74944;52.322;16.918;2024-01-10T10:50:20;71.63;;;29.98;;
84723;SDS011;74944;52.322;16.918;2024-01-10T10:52:48;73.82;;;30.38;;
84723;SDS011;74944;52.322;16.918;2024-01-10T10:55:15;77.72;;;29.75;;
84723;SDS011;74944;52.322;16.918;2024-01-10T10:57:45;77.95;;;29.63;;
84723;SDS011;74944;52.322;16.918;2024-01-10T11:00:13;83.90;;;32.88;;
84723;SDS011;74944;52.322;16.918;2024-01-10T11:02:43;78.75;;;33.08;;
84723;SDS011;74944;52.322;16.918;2024-01-10T11:05:10;77.30;;;32.58;;
84723;SDS011;74944;52.322;16.918;2024-01-10T11:07:37;96.95;;;37.72;;
84723;SDS011;74944;52.322;16.918;2024-01-10T11:10:11;87.50;;;37.40;;
84723;SDS011;74944;52.322;16.918;2024-01-10T11:13:00;110.68;;;45.47;;
84723;SDS011;74944;52.322;16.918;2024-01-10T11:21:56;113.32;;;46.42;;
84723;SDS011;74944;52.322;16.918;2024-01-10T11:24:34;138.40;;;55.42;;
84723;SDS011;74944;52.322;16.918;2024-01-10T11:27:10;142.52;;;61.25;;
84723;SDS011;74944;52.322;16.918;2024-01-10T11:29:38;141.70;;;58.03;;
84723;SDS011;74944;52.322;16.918;2024-01-10T11:32:16;141.23;;;56.30;;
84723;SDS011;74944;52.322;16.918;2024-01-10T11:34:59;145.10;;;61.10;;
84723;SDS011;74944;52.322;16.918;2024-01-10T11:37:29;155.20;;;61.35;;
84723;SDS011;74944;52.322;16.918;2024-01-10T11:40:09;158.38;;;63.03;;
84723;SDS011;74944;52.322;16.918;2024-01-10T11:42:45;152.75;;;60.90;;
84723;SDS011;74944;52.322;16.918;2024-01-10T11:47:57;141.98;;;59.88;;
84723;SDS011;74944;52.322;16.918;2024-01-10T11:52:52;130.80;;;50.45;;
84723;SDS011;74944;52.322;16.918;2024-01-10T11:58:17;128.10;;;55.15;;
84723;SDS011;74944;52.322;16.918;2024-01-10T12:03:09;134.55;;;56.08;;
84723;SDS011;74944;52.322;16.918;2024-01-10T12:05:36;131.95;;;53.78;;
84723;SDS011;74944;52.322;16.918;2024-01-10T12:08:07;150.27;;;59.38;;
84723;SDS011;74944;52.322;16.918;2024-01-10T12:10:33;145.40;;;58.25;;
84723;SDS011;74944;52.322;16.918;2024-01-10T12:13:04;135.10;;;56.70;;
84723;SDS011;74944;52.322;16.918;2024-01-10T12:15:30;143.35;;;54.53;;
84723;SDS011;74944;52.322;16.918;2024-01-10T12:20:21;141.63;;;55.47;;
84723;SDS011;74944;52.322;16.918;2024-01-10T12:25:13;119.22;;;45.78;;
84723;SDS011;74944;52.322;16.918;2024-01-10T12:27:39;120.30;;;49.30;;
84723;SDS011;74944;52.322;16.918;2024-01-10T12:32:32;102.63;;;40.45;;
84723;SDS011;74944;52.322;16.918;2024-01-10T12:37:27;106.32;;;41.53;;
84723;SDS011;74944;52.322;16.918;2024-01-10T12:42:19;65.85;;;26.77;;
84723;SDS011;74944;52.322;16.918;2024-01-10T12:47:21;60.20;;;24.50;;
84723;SDS011;74944;52.322;16.918;2024-01-10T12:49:49;66.82;;;27.08;;
84723;SDS011;74944;52.322;16.918;2024-01-10T12:52:15;72.38;;;30.25;;
84723;SDS011;74944;52.322;16.918;2024-01-10T12:57:07;70.55;;;28.33;;
84723;SDS011;74944;52.322;16.918;2024-01-10T13:01:59;73.80;;;30.20;;
84723;SDS011;74944;52.322;16.918;2024-01-10T13:04:25;75.53;;;30.65;;
84723;SDS011;74944;52.322;16.918;2024-01-10T13:06:51;75.05;;;28.83;;
84723;SDS011;74944;52.322;16.918;2024-01-10T13:11:42;74.53;;;28.50;;
84723;SDS011;74944;52.322;16.918;2024-01-10T13:14:10;73.07;;;29.05;;
84723;SDS011;74944;52.322;16.918;2024-01-10T13:16:36;76.63;;;32.42;;
84723;SDS011;74944;52.322;16.918;2024-01-10T13:21:28;89.45;;;31.25;;
84723;SDS011;74944;52.322;16.918;2024-01-10T13:26:19;68.88;;;27.58;;
84723;SDS011;74944;52.322;16.918;2024-01-10T13:31:10;65.28;;;28.05;;
84723;SDS011;74944;52.322;16.918;2024-01-10T13:36:03;77.97;;;32.03;;
84723;SDS011;74944;52.322;16.918;2024-01-10T13:38:31;71.95;;;29.13;;
84723;SDS011;74944;52.322;16.918;2024-01-10T13:40:57;72.68;;;28.65;;
84723;SDS011;74944;52.322;16.918;2024-01-10T13:43:23;70.07;;;28.30;;
84723;SDS011;74944;52.322;16.918;2024-01-10T13:48:14;74.60;;;28.70;;
84723;SDS011;74944;52.322;16.918;2024-01-10T13:50:41;84.45;;;30.52;;
84723;SDS011;74944;52.322;16.918;2024-01-10T13:53:07;77.78;;;31.70;;
84723;SDS011;74944;52.322;16.918;2024-01-10T13:58:00;89.22;;;34.47;;
84723;SDS011;74944;52.322;16.918;2024-01-10T14:00:26;92.05;;;34.22;;
84723;SDS011;74944;52.322;16.918;2024-01-10T14:02:52;101.50;;;37.20;;
84723;SDS011;74944;52.322;16.918;2024-01-10T14:05:24;82.43;;;33.42;;
84723;SDS011;74944;52.322;16.918;2024-01-10T14:07:51;83.20;;;32.50;;
84723;SDS011;74944;52.322;16.918;2024-01-10T14:10:16;80.88;;;30.35;;
84723;SDS011;74944;52.322;16.918;2024-01-10T14:15:08;78.40;;;29.73;;
84723;SDS011;74944;52.322;16.918;2024-01-10T14:17:34;83.10;;;31.35;;
84723;SDS011;74944;52.322;16.918;2024-01-10T14:20:00;87.38;;;32.25;;
84723;SDS011;74944;52.322;16.918;2024-01-10T14:22:26;87.22;;;33.00;;
84723;SDS011;74944;52.322;16.918;2024-01-10T14:24:52;88.75;;;37.08;;
84723;SDS011;74944;52.322;16.918;2024-01-10T14:27:19;90.95;;;33.83;;
84723;SDS011;74944;52.322;16.918;2024-01-10T14:29:45;93.32;;;36.80;;
84723;SDS011;74944;52.322;16.918;2024-01-10T14:32:12;87.53;;;34.88;;
84723;SDS011;74944;52.322;16.918;2024-01-10T14:34:41;87.03;;;34.80;;
84723;SDS011;74944;52.322;16.918;2024-01-10T14:37:07;93.53;;;36.25;;
84723;SDS011;74944;52.322;16.918;2024-01-10T14:39:36;92.95;;;38.08;;
84723;SDS011;74944;52.322;16.918;2024-01-10T14:42:06;101.40;;;41.47;;
84723;SDS011;74944;52.322;16.918;2024-01-10T14:44:34;95.60;;;37.35;;
84723;SDS011;74944;52.322;16.918;2024-01-10T14:47:01;90.68;;;34.78;;
84723;SDS011;74944;52.322;16.918;2024-01-10T14:49:28;97.20;;;38.13;;
84723;SDS011;74944;52.322;16.918;2024-01-10T14:54:22;113.13;;;43.83;;
84723;SDS011;74944;52.322;16.918;2024-01-10T14:59:14;149.65;;;45.88;;
84723;SDS011;74944;52.322;16.918;2024-01-10T15:01:47;150.23;;;50.58;;
84723;SDS011;74944;52.322;16.918;2024-01-10T15:04:13;143.45;;;47.53;;
84723;SDS011;74944;52.322;16.918;2024-01-10T15:06:43;150.77;;;49.83;;
84723;SDS011;74944;52.322;16.918;2024-01-10T15:09:09;154.77;;;53.97;;
84723;SDS011;74944;52.322;16.918;2024-01-10T15:14:01;126.28;;;44.05;;
84723;SDS011;74944;52.322;16.918;2024-01-10T15:16:26;125.95;;;46.13;;